Time;durP1;ratioP1;P1;durP2;ratioP2;P2;SDS_P1;SDS_P2;PMS_P1;PMS_P2;Temp;Humidity;BMP_temperature;BMP_pressure;BME280_temperature;BME280_humidity;BME280_pressure;Samples;Min_cycle;Max_cycle;Signal;HPM_P1;HPM_P2
2022/07/09 00:02:17;;;;;;;7.63;4.28;;;;;;;;;;5324510;28;20020;-70
2022/07/09 00:04:48;;;;;;;10.45;4.78;;;;;;;;;;5325025;28;20077;-69
2022/07/09 00:07:19;;;;;;;6.33;4.27;;;;;;;;;;5323965;28;20019;-70
2022/07/09 00:09:51;;;;;;;9.10;4.57;;;;;;;;;;5324514;28;20268;-69
2022/07/09 00:12:22;;;;;;;8.02;4.70;;;;;;;;;;5324332;28;20752;-70
2022/07/09 00:14:54;;;;;;;6.20;4.78;;;;;;;;;;5324418;28;20073;-70
2022/07/09 00:17:29;;;;;;;7.43;4.20;;;;;;;;;;5324410;28;20305;-70
2022/07/09 00:20:04;;;;;;;8.10;5.03;;;;;;;;;;5324464;28;20054;-70
2022/07/09 00:22:35;;;;;;;9.43;5.45;;;;;;;;;;5323927;28;20099;-69
2022/07/09 00:25:07;;;;;;;8.23;5.13;;;;;;;;;;5324383;28;20099;-70
2022/07/09 00:27:38;;;;;;;7.60;5.38;;;;;;;;;;5323762;28;20295;-69
2022/07/09 00:30:09;;;;;;;8.15;5.30;;;;;;;;;;5323954;28;20464;-70
2022/07/09 00:32:40;;;;;;;13.43;6.10;;;;;;;;;;5324502;28;20677;-70
2022/07/09 00:35:11;;;;;;;7.25;5.53;;;;;;;;;;5323730;28;20015;-70
2022/07/09 00:37:43;;;;;;;9.40;6.20;;;;;;;;;;5323920;28;20024;-70
2022/07/09 00:40:14;;;;;;;7.25;5.57;;;;;;;;;;5324298;28;20058;-69
2022/07/09 00:42:45;;;;;;;6.40;5.35;;;;;;;;;;5323695;28;20315;-70
2022/07/09 00:45:17;;;;;;;7.22;5.10;;;;;;;;;;5324026;28;20102;-71
2022/07/09 00:47:48;;;;;;;8.50;5.55;;;;;;;;;;5324142;28;20362;-70
2022/07/09 00:50:19;;;;;;;8.73;4.95;;;;;;;;;;5323024;28;20025;-70
2022/07/09 00:52:51;;;;;;;10.32;5.88;;;;;;;;;;5323976;28;20031;-70
2022/07/09 00:55:22;;;;;;;9.13;5.88;;;;;;;;;;5323116;28;20505;-70
2022/07/09 00:57:54;;;;;;;10.13;5.90;;;;;;;;;;5324080;28;20016;-70
2022/07/09 01:00:25;;;;;;;6.15;5.45;;;;;;;;;;5323486;28;20106;-70
2022/07/09 01:02:56;;;;;;;9.18;6.07;;;;;;;;;;5323651;28;20027;-69
2022/07/09 01:05:35;;;;;;;9.90;6.90;;;;;;;;;;5323451;28;20261;-69
2022/07/09 01:08:07;;;;;;;6.60;6.00;;;;;;;;;;5323371;28;20254;-70
2022/07/09 01:10:38;;;;;;;8.82;5.25;;;;;;;;;;5323300;28;20065;-70
2022/07/09 01:13:10;;;;;;;9.52;6.18;;;;;;;;;;5323206;28;20115;-69
2022/07/09 01:15:41;;;;;;;9.30;6.32;;;;;;;;;;5323683;28;20023;-70
2022/07/09 01:18:13;;;;;;;8.35;6.97;;;;;;;;;;5322952;28;20047;-70
2022/07/09 01:20:44;;;;;;;10.43;6.72;;;;;;;;;;5323063;28;20577;-69
2022/07/09 01:23:15;;;;;;;9.70;6.65;;;;;;;;;;5323616;28;20024;-70
2022/07/09 01:25:46;;;;;;;8.00;6.80;;;;;;;;;;5322739;28;20265;-70
2022/07/09 01:28:18;;;;;;;8.80;6.95;;;;;;;;;;5323737;28;20035;-69
2022/07/09 01:30:49;;;;;;;9.55;6.82;;;;;;;;;;5323092;28;20117;-69
2022/07/09 01:33:20;;;;;;;9.80;8.20;;;;;;;;;;5322885;28;20015;-68
2022/07/09 01:35:51;;;;;;;11.93;8.32;;;;;;;;;;5323584;28;20265;-68
2022/07/09 01:38:22;;;;;;;8.88;7.95;;;;;;;;;;5322357;28;20337;-68
2022/07/09 01:40:54;;;;;;;8.18;7.38;;;;;;;;;;5323479;28;20031;-69
2022/07/09 01:43:25;;;;;;;7.53;6.68;;;;;;;;;;5323114;28;20011;-68
2022/07/09 01:45:56;;;;;;;7.37;6.67;;;;;;;;;;5323098;28;20020;-68
2022/07/09 01:48:29;;;;;;;9.88;7.18;;;;;;;;;;5322676;28;20268;-68
2022/07/09 01:51:00;;;;;;;12.98;8.43;;;;;;;;;;5323223;28;20012;-69
2022/07/09 01:53:33;;;;;;;8.85;7.15;;;;;;;;;;5322794;28;20034;-68
2022/07/09 01:56:05;;;;;;;10.13;7.95;;;;;;;;;;5323242;28;20274;-68
2022/07/09 01:58:36;;;;;;;10.52;7.82;;;;;;;;;;5322727;28;20023;-68
2022/07/09 02:01:07;;;;;;;10.55;7.78;;;;;;;;;;5322731;28;20028;-68
2022/07/09 02:03:39;;;;;;;11.02;7.53;;;;;;;;;;5323434;28;20027;-69
2022/07/09 02:06:10;;;;;;;8.57;7.77;;;;;;;;;;5322738;28;20289;-68
2022/07/09 02:08:41;;;;;;;9.65;7.20;;;;;;;;;;5322914;28;20269;-68
2022/07/09 02:11:12;;;;;;;7.53;6.80;;;;;;;;;;5322966;28;20280;-69
2022/07/09 02:13:43;;;;;;;10.38;7.45;;;;;;;;;;5322430;28;20012;-69
2022/07/09 02:16:14;;;;;;;8.40;7.53;;;;;;;;;;5322945;28;20274;-68
2022/07/09 02:18:45;;;;;;;9.07;7.83;;;;;;;;;;5323001;28;20308;-68
2022/07/09 02:21:17;;;;;;;9.68;7.18;;;;;;;;;;5324672;28;20297;-68
2022/07/09 02:23:48;;;;;;;9.77;7.80;;;;;;;;;;5326728;28;20118;-68
2022/07/09 02:26:20;;;;;;;7.50;6.80;;;;;;;;;;5326609;28;20266;-69
2022/07/09 02:28:51;;;;;;;8.77;7.78;;;;;;;;;;5326264;28;20023;-68
2022/07/09 02:31:23;;;;;;;10.07;7.13;;;;;;;;;;5326444;27;20750;-68
2022/07/09 02:33:54;;;;;;;7.88;7.15;;;;;;;;;;5326654;28;20422;-69
2022/07/09 02:36:25;;;;;;;8.43;7.30;;;;;;;;;;5326514;28;20023;-68
2022/07/09 02:38:56;;;;;;;9.57;7.57;;;;;;;;;;5327046;28;20283;-69
2022/07/09 02:41:27;;;;;;;8.60;7.75;;;;;;;;;;5326159;28;20270;-69
2022/07/09 02:43:58;;;;;;;8.57;7.68;;;;;;;;;;5326834;28;20264;-68
2022/07/09 02:46:29;;;;;;;8.93;7.15;;;;;;;;;;5326399;28;20281;-68
2022/07/09 02:49:01;;;;;;;7.28;6.68;;;;;;;;;;5326073;28;20323;-69
2022/07/09 02:51:32;;;;;;;11.77;7.95;;;;;;;;;;5326644;28;20349;-69
2022/07/09 02:54:04;;;;;;;11.37;8.83;;;;;;;;;;5326643;28;20028;-69
2022/07/09 02:56:35;;;;;;;7.20;6.55;;;;;;;;;;5325832;28;20267;-68
2022/07/09 02:59:06;;;;;;;9.23;8.33;;;;;;;;;;5326296;28;20028;-69
2022/07/09 03:01:37;;;;;;;11.37;10.23;;;;;;;;;;5326386;28;20280;-69
2022/07/09 03:04:09;;;;;;;10.43;9.32;;;;;;;;;;5325703;28;20292;-69
2022/07/09 03:06:40;;;;;;;11.23;9.95;;;;;;;;;;5326393;28;20273;-69
2022/07/09 03:09:12;;;;;;;10.93;9.93;;;;;;;;;;5325550;28;20408;-69
2022/07/09 03:11:44;;;;;;;11.00;9.85;;;;;;;;;;5325812;28;20359;-69
2022/07/09 03:14:15;;;;;;;11.85;10.68;;;;;;;;;;5325901;28;20016;-69
2022/07/09 03:16:46;;;;;;;13.52;12.00;;;;;;;;;;5325628;28;20016;-69
2022/07/09 03:19:19;;;;;;;15.77;11.70;;;;;;;;;;5325602;28;20055;-69
2022/07/09 03:21:50;;;;;;;13.73;11.65;;;;;;;;;;5326312;27;20678;-69
2022/07/09 03:24:22;;;;;;;13.68;12.10;;;;;;;;;;5324892;28;20076;-69
2022/07/09 03:26:53;;;;;;;14.68;13.25;;;;;;;;;;5325971;28;20114;-69
2022/07/09 03:29:24;;;;;;;16.15;13.30;;;;;;;;;;5325561;28;20307;-69
2022/07/09 03:31:55;;;;;;;14.63;13.15;;;;;;;;;;5324833;28;20069;-69
2022/07/09 03:34:27;;;;;;;19.15;14.82;;;;;;;;;;5325188;28;20020;-69
2022/07/09 03:36:58;;;;;;;18.87;16.00;;;;;;;;;;5325661;28;20306;-69
2022/07/09 03:39:30;;;;;;;21.90;16.98;;;;;;;;;;5324534;28;20289;-69
2022/07/09 03:42:01;;;;;;;19.20;16.98;;;;;;;;;;5325517;28;20011;-68
2022/07/09 03:44:33;;;;;;;19.58;17.63;;;;;;;;;;5324551;28;20301;-68
2022/07/09 03:47:04;;;;;;;19.58;17.48;;;;;;;;;;5325095;28;20023;-69
2022/07/09 03:49:36;;;;;;;24.05;17.95;;;;;;;;;;5325023;28;20019;-69
2022/07/09 03:52:07;;;;;;;20.33;17.73;;;;;;;;;;5324701;28;20015;-69
2022/07/09 03:54:38;;;;;;;20.67;18.33;;;;;;;;;;5324927;28;20024;-69
2022/07/09 03:57:10;;;;;;;21.30;19.10;;;;;;;;;;5325049;28;20385;-69
2022/07/09 03:59:41;;;;;;;24.48;20.23;;;;;;;;;;5324392;28;20810;-69
2022/07/09 04:02:12;;;;;;;21.92;19.25;;;;;;;;;;5324827;28;20008;-69
2022/07/09 04:04:43;;;;;;;22.77;19.90;;;;;;;;;;5325088;28;20034;-69
2022/07/09 04:07:14;;;;;;;22.88;19.83;;;;;;;;;;5324331;28;20250;-68
2022/07/09 04:09:45;;;;;;;23.25;20.15;;;;;;;;;;5324780;28;20019;-68
2022/07/09 04:12:17;;;;;;;25.33;21.73;;;;;;;;;;5324092;28;20273;-69
2022/07/09 04:14:48;;;;;;;24.98;21.23;;;;;;;;;;5324596;28;20301;-68
2022/07/09 04:17:19;;;;;;;23.40;20.98;;;;;;;;;;5324737;28;20434;-69
2022/07/09 04:19:50;;;;;;;24.13;20.58;;;;;;;;;;5324169;28;20051;-69
2022/07/09 04:22:22;;;;;;;24.63;21.17;;;;;;;;;;5324053;28;20284;-69
2022/07/09 04:24:53;;;;;;;27.25;21.75;;;;;;;;;;5324666;28;20024;-69
2022/07/09 04:27:24;;;;;;;26.25;21.55;;;;;;;;;;5323806;28;20253;-69
2022/07/09 04:29:55;;;;;;;27.38;22.73;;;;;;;;;;5324329;28;20281;-69
2022/07/09 04:32:26;;;;;;;27.65;23.60;;;;;;;;;;5324171;28;20019;-69
2022/07/09 04:34:57;;;;;;;27.67;24.67;;;;;;;;;;5323845;28;20800;-69
2022/07/09 04:37:29;;;;;;;26.97;24.23;;;;;;;;;;5324163;28;20023;-69
2022/07/09 04:40:00;;;;;;;30.37;26.33;;;;;;;;;;5324344;28;20292;-68
2022/07/09 04:42:31;;;;;;;27.02;23.98;;;;;;;;;;5323036;28;20266;-69
2022/07/09 04:45:03;;;;;;;29.70;26.70;;;;;;;;;;5324084;28;20061;-69
2022/07/09 04:47:34;;;;;;;30.00;26.92;;;;;;;;;;5323520;28;20265;-69
2022/07/09 04:50:06;;;;;;;28.93;25.97;;;;;;;;;;5323840;28;20016;-69
2022/07/09 04:52:37;;;;;;;29.20;26.17;;;;;;;;;;5324133;28;20275;-69
2022/07/09 04:55:10;;;;;;;30.05;26.83;;;;;;;;;;5323474;28;20015;-69
2022/07/09 04:57:41;;;;;;;29.25;26.05;;;;;;;;;;5323742;28;20019;-69
2022/07/09 05:00:13;;;;;;;29.83;26.77;;;;;;;;;;5324432;28;20028;-69
2022/07/09 05:02:44;;;;;;;31.90;28.50;;;;;;;;;;5323402;28;20250;-69
2022/07/09 05:05:15;;;;;;;29.75;26.58;;;;;;;;;;5323712;28;20047;-69
2022/07/09 05:07:46;;;;;;;30.17;26.95;;;;;;;;;;5323638;28;20023;-69
2022/07/09 05:10:18;;;;;;;32.88;29.35;;;;;;;;;;5322694;28;20024;-69
2022/07/09 05:12:49;;;;;;;32.60;28.88;;;;;;;;;;5323286;28;20266;-69
2022/07/09 05:15:20;;;;;;;33.13;28.75;;;;;;;;;;5323128;28;20550;-69
2022/07/09 05:17:51;;;;;;;33.33;30.08;;;;;;;;;;5322968;28;20035;-69
2022/07/09 05:20:22;;;;;;;34.88;29.30;;;;;;;;;;5322842;28;20048;-69
2022/07/09 05:22:54;;;;;;;33.85;30.27;;;;;;;;;;5322804;28;20018;-69
2022/07/09 05:25:25;;;;;;;32.60;29.17;;;;;;;;;;5322915;28;20130;-69
2022/07/09 05:27:56;;;;;;;33.33;29.60;;;;;;;;;;5323745;28;20020;-69
2022/07/09 05:30:27;;;;;;;33.72;30.08;;;;;;;;;;5322280;28;20261;-69
2022/07/09 05:32:59;;;;;;;32.08;28.98;;;;;;;;;;5323466;28;20020;-70
2022/07/09 05:35:30;;;;;;;32.53;29.05;;;;;;;;;;5322632;28;20134;-69
2022/07/09 05:38:01;;;;;;;31.77;28.48;;;;;;;;;;5323180;28;20124;-69
2022/07/09 05:40:32;;;;;;;33.08;29.52;;;;;;;;;;5322567;28;20028;-69
2022/07/09 05:43:04;;;;;;;30.27;27.08;;;;;;;;;;5323274;28;20399;-69
2022/07/09 05:45:35;;;;;;;33.55;28.45;;;;;;;;;;5322495;28;20054;-69
2022/07/09 05:48:06;;;;;;;32.33;28.80;;;;;;;;;;5323041;28;20322;-69
2022/07/09 05:50:37;;;;;;;30.98;27.65;;;;;;;;;;5323292;28;20457;-69
2022/07/09 05:53:08;;;;;;;31.02;27.60;;;;;;;;;;5322340;28;20310;-69
2022/07/09 05:55:39;;;;;;;31.35;28.05;;;;;;;;;;5326469;28;20274;-69
2022/07/09 05:58:11;;;;;;;30.27;27.23;;;;;;;;;;5326706;28;20250;-69
2022/07/09 06:00:42;;;;;;;33.08;27.77;;;;;;;;;;5326936;28;20371;-69
2022/07/09 06:03:13;;;;;;;29.25;26.40;;;;;;;;;;5327116;28;20277;-69
2022/07/09 06:05:44;;;;;;;28.60;25.33;;;;;;;;;;5326699;28;20289;-69
2022/07/09 06:08:15;;;;;;;28.23;25.40;;;;;;;;;;5327025;28;20276;-69
2022/07/09 06:10:46;;;;;;;28.58;24.95;;;;;;;;;;5327058;28;20676;-69
2022/07/09 06:13:18;;;;;;;28.73;25.73;;;;;;;;;;5326220;28;20020;-69
2022/07/09 06:15:49;;;;;;;28.80;25.77;;;;;;;;;;5327346;28;20023;-70
2022/07/09 06:18:21;;;;;;;26.90;24.02;;;;;;;;;;5326759;28;20068;-70
2022/07/09 06:20:53;;;;;;;29.35;25.23;;;;;;;;;;5326244;28;20047;-69
2022/07/09 06:23:24;;;;;;;26.98;24.35;;;;;;;;;;5326526;28;20026;-69
2022/07/09 06:25:55;;;;;;;27.70;24.80;;;;;;;;;;5326411;28;20376;-69
2022/07/09 06:28:26;;;;;;;28.58;25.60;;;;;;;;;;5326182;28;20389;-69
2022/07/09 06:30:57;;;;;;;25.97;23.53;;;;;;;;;;5327142;28;20475;-69
2022/07/09 06:33:28;;;;;;;25.43;22.70;;;;;;;;;;5325918;28;20266;-69
2022/07/09 06:36:00;;;;;;;26.23;23.43;;;;;;;;;;5326419;28;20273;-69
2022/07/09 06:38:31;;;;;;;26.23;22.70;;;;;;;;;;5326811;28;20273;-69
2022/07/09 06:41:02;;;;;;;24.60;22.00;;;;;;;;;;5326125;28;20051;-69
2022/07/09 06:43:33;;;;;;;25.85;22.23;;;;;;;;;;5326397;28;20012;-68
2022/07/09 06:46:04;;;;;;;24.60;22.08;;;;;;;;;;5326550;28;20027;-70
2022/07/09 06:48:35;;;;;;;26.70;22.73;;;;;;;;;;5325892;28;20733;-70
2022/07/09 06:51:07;;;;;;;25.33;22.83;;;;;;;;;;5326577;28;20304;-70
2022/07/09 06:53:38;;;;;;;27.35;24.55;;;;;;;;;;5326519;28;20525;-70
2022/07/09 06:56:09;;;;;;;27.10;24.30;;;;;;;;;;5325708;28;20044;-69
2022/07/09 06:58:40;;;;;;;27.15;24.35;;;;;;;;;;5318105;28;20313;-69
2022/07/09 07:01:11;;;;;;;28.65;25.92;;;;;;;;;;5307763;28;20024;-69
2022/07/09 07:03:42;;;;;;;27.17;24.10;;;;;;;;;;5325703;28;20303;-69
2022/07/09 07:06:14;;;;;;;26.20;23.47;;;;;;;;;;5325085;28;20056;-70
2022/07/09 07:08:45;;;;;;;24.97;22.37;;;;;;;;;;5325901;28;20258;-69
2022/07/09 07:11:16;;;;;;;26.70;22.48;;;;;;;;;;5326167;28;20269;-69
2022/07/09 07:13:47;;;;;;;23.38;20.92;;;;;;;;;;5326224;28;20047;-69
2022/07/09 07:16:18;;;;;;;25.13;19.93;;;;;;;;;;5325585;28;20026;-69
2022/07/09 07:18:50;;;;;;;21.67;18.67;;;;;;;;;;5326297;28;20297;-68
2022/07/09 07:21:21;;;;;;;20.23;18.23;;;;;;;;;;5325524;28;20317;-69
2022/07/09 07:23:52;;;;;;;21.10;17.75;;;;;;;;;;5325609;28;20024;-68
2022/07/09 07:26:23;;;;;;;19.60;17.58;;;;;;;;;;5325834;28;20022;-68
2022/07/09 07:28:54;;;;;;;19.10;17.13;;;;;;;;;;5326126;28;20023;-69
2022/07/09 07:31:26;;;;;;;19.92;16.52;;;;;;;;;;5324956;28;20309;-68
2022/07/09 07:33:59;;;;;;;23.33;18.27;;;;;;;;;;5325971;28;20020;-68
2022/07/09 07:36:30;;;;;;;18.98;16.88;;;;;;;;;;5325193;28;20062;-68
2022/07/09 07:39:02;;;;;;;23.10;15.70;;;;;;;;;;5325484;28;20040;-69
2022/07/09 07:41:33;;;;;;;18.38;16.45;;;;;;;;;;5325832;28;20265;-68
2022/07/09 07:44:04;;;;;;;21.85;17.63;;;;;;;;;;5325153;28;20007;-68
2022/07/09 07:46:35;;;;;;;19.47;15.50;;;;;;;;;;5325151;28;20015;-69
2022/07/09 07:49:07;;;;;;;20.00;16.50;;;;;;;;;;5325170;28;20272;-68
2022/07/09 07:51:38;;;;;;;17.33;15.52;;;;;;;;;;5324887;28;20748;-69
2022/07/09 07:54:09;;;;;;;17.08;15.48;;;;;;;;;;5325603;28;20012;-69
2022/07/09 07:56:41;;;;;;;19.95;17.15;;;;;;;;;;5325351;28;20020;-68
2022/07/09 07:59:12;;;;;;;20.20;17.95;;;;;;;;;;5324231;28;20016;-70
2022/07/09 08:01:43;;;;;;;22.33;17.50;;;;;;;;;;5325024;28;20058;-68
2022/07/09 08:04:14;;;;;;;18.83;16.87;;;;;;;;;;5325371;28;20254;-69
2022/07/09 08:06:46;;;;;;;17.25;15.50;;;;;;;;;;5324387;28;20261;-71
2022/07/09 08:09:17;;;;;;;20.77;18.08;;;;;;;;;;5324920;28;20015;-70
2022/07/09 08:11:48;;;;;;;22.83;19.25;;;;;;;;;;5324394;28;20371;-69
2022/07/09 08:14:20;;;;;;;20.88;18.05;;;;;;;;;;5324601;28;20008;-69
2022/07/09 08:16:51;;;;;;;19.42;17.35;;;;;;;;;;5325101;28;20020;-69
2022/07/09 08:19:22;;;;;;;19.30;16.50;;;;;;;;;;5323844;28;20488;-69
2022/07/09 08:21:53;;;;;;;19.95;16.73;;;;;;;;;;5325078;28;20050;-69
2022/07/09 08:24:25;;;;;;;21.67;16.88;;;;;;;;;;5323381;28;20049;-69
2022/07/09 08:26:56;;;;;;;21.10;16.77;;;;;;;;;;5324080;28;20023;-69
2022/07/09 08:29:27;;;;;;;20.00;16.75;;;;;;;;;;5324596;28;20015;-69
2022/07/09 08:31:59;;;;;;;17.43;15.27;;;;;;;;;;5324742;28;20047;-69
2022/07/09 08:34:30;;;;;;;22.27;16.27;;;;;;;;;;5323413;28;20605;-69
2022/07/09 08:37:01;;;;;;;16.50;14.40;;;;;;;;;;5324197;28;20052;-69
2022/07/09 08:39:32;;;;;;;19.77;15.40;;;;;;;;;;5323854;28;20478;-69
2022/07/09 08:42:08;;;;;;;16.20;14.40;;;;;;;;;;5323740;28;20299;-69
2022/07/09 08:44:42;;;;;;;17.67;16.00;;;;;;;;;;5324135;28;20513;-69
2022/07/09 08:47:14;;;;;;;17.23;13.07;;;;;;;;;;5323585;28;20020;-69
2022/07/09 08:49:46;;;;;;;16.90;14.38;;;;;;;;;;5324345;28;20051;-69
2022/07/09 08:52:17;;;;;;;14.05;12.20;;;;;;;;;;5324610;28;20050;-68
2022/07/09 08:54:48;;;;;;;17.13;13.45;;;;;;;;;;5323326;28;20024;-69
2022/07/09 08:57:20;;;;;;;14.73;11.55;;;;;;;;;;5324026;28;20370;-69
2022/07/09 08:59:51;;;;;;;13.65;10.77;;;;;;;;;;5324171;28;20115;-69
2022/07/09 09:02:22;;;;;;;14.30;10.77;;;;;;;;;;5323081;28;20012;-69
2022/07/09 09:04:54;;;;;;;14.20;11.47;;;;;;;;;;5324166;28;20027;-69
2022/07/09 09:07:28;;;;;;;15.43;9.70;;;;;;;;;;5323030;28;20269;-70
2022/07/09 09:09:59;;;;;;;15.18;9.68;;;;;;;;;;5323191;28;20027;-69
2022/07/09 09:12:30;;;;;;;10.75;9.52;;;;;;;;;;5323729;28;20022;-70
2022/07/09 09:15:05;;;;;;;12.30;9.17;;;;;;;;;;5323131;28;20016;-70
2022/07/09 09:17:42;;;;;;;13.25;9.15;;;;;;;;;;5323516;28;20016;-69
2022/07/09 09:20:14;;;;;;;17.55;9.90;;;;;;;;;;5323621;28;20066;-69
2022/07/09 09:22:49;;;;;;;11.48;9.98;;;;;;;;;;5322806;28;20047;-68
2022/07/09 09:25:21;;;;;;;14.80;10.15;;;;;;;;;;5323279;28;20022;-68
2022/07/09 09:27:53;;;;;;;13.27;11.23;;;;;;;;;;5323913;28;20023;-68
2022/07/09 09:30:25;;;;;;;15.65;9.98;;;;;;;;;;5321948;28;20019;-69
2022/07/09 09:33:00;;;;;;;13.23;10.40;;;;;;;;;;5323747;28;20020;-69
2022/07/09 09:35:35;;;;;;;15.43;10.88;;;;;;;;;;5323551;28;20012;-69
2022/07/09 09:38:06;;;;;;;14.35;10.52;;;;;;;;;;5322594;28;20012;-69
2022/07/09 09:40:39;;;;;;;11.60;10.43;;;;;;;;;;5323315;28;20036;-69
2022/07/09 09:43:11;;;;;;;15.27;11.95;;;;;;;;;;5322931;28;20084;-69
2022/07/09 09:45:42;;;;;;;14.45;10.32;;;;;;;;;;5323024;28;20020;-69
2022/07/09 09:48:14;;;;;;;12.73;11.50;;;;;;;;;;5323587;28;20023;-69
2022/07/09 09:50:47;;;;;;;11.98;10.45;;;;;;;;;;5322574;28;20273;-70
2022/07/09 09:53:19;;;;;;;13.25;10.15;;;;;;;;;;5319889;28;20468;-69
2022/07/09 09:55:50;;;;;;;14.20;10.70;;;;;;;;;;5304847;28;20050;-69
2022/07/09 09:58:21;;;;;;;13.40;11.38;;;;;;;;;;5300654;28;20026;-69
2022/07/09 10:00:53;;;;;;;14.20;10.70;;;;;;;;;;5301926;28;20024;-70
2022/07/09 10:03:25;;;;;;;14.93;11.30;;;;;;;;;;5301434;28;20258;-69
2022/07/09 10:05:56;;;;;;;14.50;10.50;;;;;;;;;;5301648;28;20024;-69
2022/07/09 10:08:27;;;;;;;12.93;10.35;;;;;;;;;;5300767;28;20023;-69
2022/07/09 10:10:59;;;;;;;13.67;9.13;;;;;;;;;;5322077;28;20104;-70
2022/07/09 10:13:30;;;;;;;12.63;9.13;;;;;;;;;;5322655;28;20269;-71
2022/07/09 10:16:01;;;;;;;10.57;7.87;;;;;;;;;;5322921;28;20020;-71
2022/07/09 10:18:33;;;;;;;10.20;6.63;;;;;;;;;;5322213;28;20091;-70
2022/07/09 10:21:04;;;;;;;12.63;6.13;;;;;;;;;;5321993;28;20132;-70
2022/07/09 10:23:48;;;;;;;11.40;5.80;;;;;;;;;;5323073;28;20518;-70
2022/07/09 10:26:19;;;;;;;7.03;4.90;;;;;;;;;;5321909;28;20529;-71
2022/07/09 10:28:50;;;;;;;7.22;5.63;;;;;;;;;;5323165;28;20024;-72
2022/07/09 10:31:23;;;;;;;8.43;4.37;;;;;;;;;;5322646;28;20022;-69
2022/07/09 10:34:01;;;;;;;6.53;4.10;;;;;;;;;;5322462;28;20269;-71
2022/07/09 10:36:32;;;;;;;6.18;3.55;;;;;;;;;;5323047;28;20028;-69
2022/07/09 10:39:11;;;;;;;8.57;4.88;;;;;;;;;;5322276;28;20053;-70
2022/07/09 10:41:42;;;;;;;10.25;3.83;;;;;;;;;;5323916;28;20127;-70
2022/07/09 10:44:23;;;;;;;6.97;4.03;;;;;;;;;;5326352;28;20087;-70
2022/07/09 10:46:57;;;;;;;5.68;2.55;;;;;;;;;;5326042;27;20651;-70
2022/07/09 10:49:29;;;;;;;3.83;1.52;;;;;;;;;;5326274;28;20020;-70
2022/07/09 10:52:00;;;;;;;4.70;1.85;;;;;;;;;;5326278;27;20089;-70
2022/07/09 10:54:32;;;;;;;5.65;1.23;;;;;;;;;;5325745;28;20819;-70
2022/07/09 10:57:04;;;;;;;6.00;0.80;;;;;;;;;;5326832;28;20095;-70
2022/07/09 10:59:36;;;;;;;2.88;0.75;;;;;;;;;;5326228;28;20030;-70
2022/07/09 11:02:16;;;;;;;6.10;0.70;;;;;;;;;;5325454;27;20518;-70
2022/07/09 11:04:49;;;;;;;3.63;1.00;;;;;;;;;;5326212;28;20023;-70
2022/07/09 11:07:24;;;;;;;4.10;1.00;;;;;;;;;;5325225;28;20027;-71
2022/07/09 11:09:55;;;;;;;2.85;0.80;;;;;;;;;;5326174;28;20134;-71
2022/07/09 11:12:26;;;;;;;3.57;0.70;;;;;;;;;;5326163;28;20486;-70
2022/07/09 11:14:57;;;;;;;3.38;0.60;;;;;;;;;;5325778;28;20278;-70
2022/07/09 11:17:28;;;;;;;4.00;0.93;;;;;;;;;;5325323;28;20027;-69
2022/07/09 11:20:01;;;;;;;6.30;0.90;;;;;;;;;;5325518;28;20083;-69
2022/07/09 11:22:32;;;;;;;14.63;5.32;;;;;;;;;;5325362;28;20324;-70
2022/07/09 11:25:04;;;;;;;6.10;1.10;;;;;;;;;;5325992;28;20114;-71
2022/07/09 11:27:39;;;;;;;2.08;0.50;;;;;;;;;;5325736;28;20272;-71
2022/07/09 11:30:14;;;;;;;4.00;0.85;;;;;;;;;;5325273;28;20096;-71
2022/07/09 11:32:45;;;;;;;6.40;0.43;;;;;;;;;;5325718;28;20054;-71
2022/07/09 11:35:44;;;;;;;3.72;0.50;;;;;;;;;;5325229;28;20035;-71
2022/07/09 11:38:15;;;;;;;1.38;0.40;;;;;;;;;;5321531;28;20027;-71
2022/07/09 11:40:46;;;;;;;1.95;0.73;;;;;;;;;;5325548;28;20043;-71
2022/07/09 11:43:17;;;;;;;4.20;0.50;;;;;;;;;;5324861;28;20051;-71
2022/07/09 11:45:52;;;;;;;2.38;0.50;;;;;;;;;;5325393;28;20271;-70
2022/07/09 11:48:24;;;;;;;4.65;0.40;;;;;;;;;;5324356;28;20043;-71
2022/07/09 11:50:55;;;;;;;1.63;0.30;;;;;;;;;;5324738;28;20470;-70
2022/07/09 11:53:26;;;;;;;1.35;0.40;;;;;;;;;;5324431;28;20339;-71
2022/07/09 11:56:01;;;;;;;10.40;0.83;;;;;;;;;;5325449;28;20473;-71
2022/07/09 11:58:32;;;;;;;2.67;0.50;;;;;;;;;;5324527;28;20015;-71
2022/07/09 12:01:09;;;;;;;10.20;5.55;;;;;;;;;;5324547;28;20485;-71
2022/07/09 12:03:46;;;;;;;3.28;0.55;;;;;;;;;;5324670;28;20412;-71
2022/07/09 12:06:17;;;;;;;15.13;6.93;;;;;;;;;;5324793;28;20035;-71
2022/07/09 12:08:58;;;;;;;11.23;7.75;;;;;;;;;;5324885;28;20446;-71
2022/07/09 12:11:29;;;;;;;7.07;1.23;;;;;;;;;;5323626;28;20024;-70
2022/07/09 12:14:00;;;;;;;3.88;0.63;;;;;;;;;;5324982;28;20395;-70
2022/07/09 12:16:31;;;;;;;12.38;4.10;;;;;;;;;;5324804;28;20107;-70
2022/07/09 12:19:03;;;;;;;4.95;0.63;;;;;;;;;;5323962;28;20020;-71
2022/07/09 12:21:34;;;;;;;4.55;0.80;;;;;;;;;;5324846;28;20085;-70
2022/07/09 12:24:05;;;;;;;3.03;0.30;;;;;;;;;;5324475;28;20012;-71
2022/07/09 12:26:37;;;;;;;1.27;0.30;;;;;;;;;;5323903;28;20023;-70
2022/07/09 12:29:08;;;;;;;1.42;0.20;;;;;;;;;;5324533;28;20091;-70
2022/07/09 12:31:39;;;;;;;2.03;0.20;;;;;;;;;;5324003;28;20090;-71
2022/07/09 12:34:11;;;;;;;2.47;0.20;;;;;;;;;;5324164;28;20122;-70
2022/07/09 12:36:42;;;;;;;3.00;0.20;;;;;;;;;;5324023;28;20020;-71
2022/07/09 12:39:13;;;;;;;2.55;0.20;;;;;;;;;;5323316;28;20015;-70
2022/07/09 12:41:44;;;;;;;0.70;0.10;;;;;;;;;;5324402;28;20035;-70
2022/07/09 12:44:15;;;;;;;4.13;0.30;;;;;;;;;;5324312;28;20257;-69
2022/07/09 12:46:48;;;;;;;5.20;0.28;;;;;;;;;;5323211;28;20024;-71
2022/07/09 12:49:19;;;;;;;1.35;0.20;;;;;;;;;;5323889;28;20884;-71
2022/07/09 12:51:50;;;;;;;3.70;0.20;;;;;;;;;;5324394;28;20023;-70
2022/07/09 12:54:21;;;;;;;0.73;0.10;;;;;;;;;;5322931;28;20139;-70
2022/07/09 12:56:52;;;;;;;1.90;0.30;;;;;;;;;;5324172;28;20024;-70
2022/07/09 12:59:24;;;;;;;8.02;0.30;;;;;;;;;;5323553;28;20022;-70
2022/07/09 13:01:56;;;;;;;1.92;0.15;;;;;;;;;;5323340;28;20031;-70
2022/07/09 13:04:27;;;;;;;0.77;0.20;;;;;;;;;;5322668;28;20462;-70
2022/07/09 13:06:58;;;;;;;2.70;0.20;;;;;;;;;;5323711;28;20447;-70
2022/07/09 13:09:29;;;;;;;2.50;0.15;;;;;;;;;;5323438;28;20379;-70
2022/07/09 13:12:00;;;;;;;3.33;0.20;;;;;;;;;;5323716;28;20031;-70
2022/07/09 13:14:32;;;;;;;1.75;0.20;;;;;;;;;;5322876;28;20253;-70
2022/07/09 13:17:03;;;;;;;1.67;0.20;;;;;;;;;;5323636;28;20018;-70
2022/07/09 13:19:34;;;;;;;3.85;0.20;;;;;;;;;;5323327;28;20048;-70
2022/07/09 13:22:08;;;;;;;3.45;0.17;;;;;;;;;;5323038;28;20451;-70
2022/07/09 13:24:39;;;;;;;3.38;0.20;;;;;;;;;;5323764;28;20366;-71
2022/07/09 13:27:12;;;;;;;1.45;0.20;;;;;;;;;;5323714;28;20052;-71
2022/07/09 13:29:43;;;;;;;1.65;0.20;;;;;;;;;;5323049;28;20388;-71
2022/07/09 13:32:14;;;;;;;2.78;0.20;;;;;;;;;;5323086;28;20058;-71
2022/07/09 13:34:46;;;;;;;3.07;0.47;;;;;;;;;;5323227;28;20016;-68
2022/07/09 13:37:17;;;;;;;2.97;0.20;;;;;;;;;;5322981;28;20485;-69
2022/07/09 13:39:48;;;;;;;1.98;0.20;;;;;;;;;;5323400;28;20031;-69
2022/07/09 13:42:20;;;;;;;2.17;0.20;;;;;;;;;;5322478;28;20011;-70
2022/07/09 13:44:51;;;;;;;4.07;0.30;;;;;;;;;;5323682;28;20084;-69
2022/07/09 13:47:22;;;;;;;2.67;0.30;;;;;;;;;;5322942;28;20663;-68
2022/07/09 13:49:53;;;;;;;3.47;0.30;;;;;;;;;;5322705;28;20369;-69
2022/07/09 13:52:24;;;;;;;1.63;0.30;;;;;;;;;;5323324;28;20413;-69
2022/07/09 13:54:55;;;;;;;5.03;0.20;;;;;;;;;;5323726;28;20080;-70
2022/07/09 13:57:27;;;;;;;2.08;0.20;;;;;;;;;;5322230;28;20016;-70
2022/07/09 13:59:58;;;;;;;2.10;0.15;;;;;;;;;;5323372;28;20031;-70
2022/07/09 14:02:32;;;;;;;2.05;0.20;;;;;;;;;;5323141;28;20016;-70
2022/07/09 14:05:04;;;;;;;2.85;0.38;;;;;;;;;;5322487;28;20016;-71
2022/07/09 14:07:36;;;;;;;2.90;0.22;;;;;;;;;;5323018;28;20054;-69
2022/07/09 14:10:07;;;;;;;0.90;0.10;;;;;;;;;;5322529;28;20043;-70
2022/07/09 14:12:38;;;;;;;6.78;0.30;;;;;;;;;;5322987;28;20020;-70
2022/07/09 14:15:10;;;;;;;2.87;0.20;;;;;;;;;;5323880;28;20030;-70
2022/07/09 14:17:41;;;;;;;2.40;0.20;;;;;;;;;;5326605;28;20016;-70
2022/07/09 14:20:12;;;;;;;3.08;0.30;;;;;;;;;;5326957;28;20039;-70
2022/07/09 14:22:43;;;;;;;1.35;0.20;;;;;;;;;;5326960;28;20477;-70
2022/07/09 14:25:15;;;;;;;2.30;0.30;;;;;;;;;;5326298;28;20477;-71
2022/07/09 14:27:47;;;;;;;2.58;0.20;;;;;;;;;;5327313;28;20015;-71
2022/07/09 14:30:18;;;;;;;2.42;0.30;;;;;;;;;;5326692;28;20024;-70
2022/07/09 14:32:49;;;;;;;4.30;0.20;;;;;;;;;;5326600;28;20474;-71
2022/07/09 14:35:21;;;;;;;1.63;0.20;;;;;;;;;;5326606;28;20027;-71
2022/07/09 14:37:52;;;;;;;5.15;0.47;;;;;;;;;;5327316;28;20450;-70
2022/07/09 14:40:23;;;;;;;3.78;0.40;;;;;;;;;;5325761;28;20027;-71
2022/07/09 14:42:54;;;;;;;1.60;0.30;;;;;;;;;;5327444;28;20416;-70
2022/07/09 14:45:26;;;;;;;2.10;0.30;;;;;;;;;;5322990;28;20028;-70
2022/07/09 14:47:57;;;;;;;4.60;0.20;;;;;;;;;;5313856;28;20394;-70
2022/07/09 14:50:28;;;;;;;3.13;0.20;;;;;;;;;;5324610;28;20080;-70
2022/07/09 14:53:01;;;;;;;2.28;0.20;;;;;;;;;;5325826;28;20019;-70
2022/07/09 14:55:32;;;;;;;1.73;0.20;;;;;;;;;;5326657;28;20023;-71
2022/07/09 14:58:04;;;;;;;4.32;0.20;;;;;;;;;;5326014;28;20011;-71